createdAt,value
2023-10-08T00:00:32.849Z,10.25
2023-10-08T00:05:42.051Z,10.26
2023-10-08T00:10:50.118Z,10.25
2023-10-08T00:15:58.543Z,10.23
2023-10-08T00:21:18.090Z,10.23
2023-10-08T00:26:29.558Z,10.21
2023-10-08T00:31:42.433Z,10.18
2023-10-08T00:36:51.099Z,10.17
2023-10-08T00:42:01.507Z,10.15
2023-10-08T00:47:12.573Z,10.13
2023-10-08T00:52:31.679Z,10.11
2023-10-08T00:57:44.363Z,10.09
2023-10-08T01:02:57.300Z,10.07
2023-10-08T01:08:08.190Z,10.06
2023-10-08T01:13:22.557Z,10.05
2023-10-08T01:18:34.279Z,10.03
2023-10-08T01:23:41.697Z,10.00
2023-10-08T01:28:49.610Z,9.98
2023-10-08T01:33:58.505Z,9.94
2023-10-08T01:39:08.335Z,9.91
2023-10-08T01:44:15.752Z,9.87
2023-10-08T01:49:26.691Z,9.82
2023-10-08T01:54:37.607Z,9.75
2023-10-08T01:59:45.719Z,9.70
2023-10-08T02:04:53.948Z,9.63
2023-10-08T02:10:01.430Z,9.57
2023-10-08T02:15:12.902Z,9.50
2023-10-08T02:20:20.928Z,9.43
2023-10-08T02:25:29.244Z,9.36
2023-10-08T02:30:37.978Z,9.29
2023-10-08T02:35:46.141Z,9.22
2023-10-08T02:40:58.576Z,9.16
2023-10-08T02:46:08.667Z,9.10
2023-10-08T02:51:16.576Z,9.04
2023-10-08T02:56:25.352Z,8.97
2023-10-08T03:01:35.842Z,8.90
2023-10-08T03:06:44.177Z,8.86
2023-10-08T03:11:52.135Z,8.81
2023-10-08T03:17:09.480Z,8.76
2023-10-08T03:22:21.085Z,8.72
2023-10-08T03:27:28.448Z,8.68
2023-10-08T03:32:37.236Z,8.63
2023-10-08T03:37:48.648Z,8.60
2023-10-08T03:42:59.021Z,8.56
2023-10-08T03:48:12.405Z,8.51
2023-10-08T03:53:20.168Z,8.48
2023-10-08T03:58:31.602Z,8.44
2023-10-08T04:03:59.723Z,8.39
2023-10-08T04:09:18.116Z,8.34
2023-10-08T04:14:29.225Z,8.29
2023-10-08T04:19:37.499Z,8.24
2023-10-08T04:24:45.599Z,8.18
2023-10-08T04:29:53.426Z,8.12
2023-10-08T04:35:02.258Z,8.05
2023-10-08T04:40:18.044Z,7.97
2023-10-08T04:45:28.193Z,7.90
2023-10-08T04:50:38.381Z,7.82
2023-10-08T04:55:50.330Z,7.77
2023-10-08T05:01:01.761Z,7.72
2023-10-08T05:06:15.877Z,7.67
2023-10-08T05:11:48.285Z,7.63
2023-10-08T05:17:02.424Z,7.61
2023-10-08T05:22:35.844Z,7.61
2023-10-08T05:27:59.644Z,7.61
2023-10-08T05:33:27.758Z,7.60
2023-10-08T05:38:50.895Z,7.60
2023-10-08T05:44:16.034Z,7.61
2023-10-08T05:49:41.063Z,7.63
2023-10-08T05:55:11.766Z,7.66
2023-10-08T06:00:48.594Z,7.67
2023-10-08T06:06:16.190Z,7.69
2023-10-08T06:11:43.499Z,7.70
2023-10-08T06:17:03.800Z,7.71
2023-10-08T06:22:11.368Z,7.72
2023-10-08T06:27:21.633Z,7.72
2023-10-08T06:32:32.103Z,7.73
2023-10-08T06:37:40.256Z,7.75
2023-10-08T06:42:53.398Z,7.77
2023-10-08T06:48:07.802Z,7.78
2023-10-08T06:53:16.636Z,7.81
2023-10-08T06:58:24.864Z,7.84
2023-10-08T07:03:33.144Z,7.89
2023-10-08T07:08:42.733Z,7.93
2023-10-08T07:13:52.001Z,7.99
2023-10-08T07:19:04.496Z,8.05
2023-10-08T07:24:17.130Z,8.12
2023-10-08T07:29:26.868Z,8.21
2023-10-08T07:34:34.890Z,8.28
2023-10-08T07:39:48.769Z,8.37
2023-10-08T07:44:57.177Z,8.48
2023-10-08T07:50:13.556Z,8.59
2023-10-08T07:55:22.286Z,8.70
2023-10-08T08:00:32.418Z,8.81
2023-10-08T08:05:42.215Z,8.92
2023-10-08T08:10:49.959Z,9.05
2023-10-08T08:15:59.988Z,9.17
2023-10-08T08:21:15.815Z,9.30
2023-10-08T08:26:31.708Z,9.42
2023-10-08T08:31:39.248Z,9.54
2023-10-08T08:36:50.353Z,9.66
2023-10-08T08:42:01.918Z,9.81
2023-10-08T08:47:12.701Z,9.93
2023-10-08T08:52:20.423Z,10.04
2023-10-08T08:57:28.537Z,10.15
2023-10-08T09:02:36.748Z,10.24
2023-10-08T09:07:58.012Z,10.33
2023-10-08T09:13:06.774Z,10.41
2023-10-08T09:18:15.775Z,10.48
2023-10-08T09:23:24.924Z,10.56
2023-10-08T09:28:34.421Z,10.62
2023-10-08T09:33:43.086Z,10.68
2023-10-08T09:38:51.711Z,10.73
2023-10-08T09:44:01.552Z,10.79
2023-10-08T09:49:13.336Z,10.85
2023-10-08T09:54:27.206Z,10.92
2023-10-08T09:59:35.432Z,10.99
2023-10-08T10:04:47.585Z,11.04
2023-10-08T10:09:55.094Z,11.10
2023-10-08T10:15:05.873Z,11.16
2023-10-08T10:20:16.928Z,11.21
2023-10-08T10:25:44.581Z,11.28
2023-10-08T10:30:53.645Z,11.35
2023-10-08T10:36:03.597Z,11.39
2023-10-08T10:41:11.311Z,11.42
2023-10-08T10:46:32.852Z,11.46
2023-10-08T10:51:43.296Z,11.50
2023-10-08T10:57:05.273Z,11.53
2023-10-08T11:02:22.968Z,11.56
2023-10-08T11:07:31.095Z,11.59
2023-10-08T11:12:48.729Z,11.60
2023-10-08T11:17:57.657Z,11.62
2023-10-08T11:23:19.810Z,11.63
2023-10-08T11:28:29.298Z,11.66
2023-10-08T11:33:40.643Z,11.69
2023-10-08T11:38:52.293Z,11.74
2023-10-08T11:44:01.160Z,11.80
2023-10-08T11:49:13.458Z,11.86
2023-10-08T11:54:21.935Z,11.91
2023-10-08T11:59:31.555Z,11.92
2023-10-08T12:04:39.186Z,11.90
2023-10-08T12:09:50.189Z,11.88
2023-10-08T12:14:57.935Z,11.86
2023-10-08T12:20:14.193Z,11.82
2023-10-08T12:25:22.553Z,11.78
2023-10-08T12:30:32.445Z,11.75
2023-10-08T12:35:40.178Z,11.72
2023-10-08T12:40:57.809Z,11.69
2023-10-08T12:46:05.417Z,11.64
2023-10-08T12:51:13.279Z,11.60
2023-10-08T12:56:33.427Z,11.59
2023-10-08T13:01:42.928Z,11.59
2023-10-08T13:06:52.589Z,11.62
2023-10-08T13:12:01.563Z,11.63
2023-10-08T13:17:12.371Z,11.61
2023-10-08T13:22:21.748Z,11.57
2023-10-08T13:27:29.833Z,11.52
2023-10-08T13:32:37.956Z,11.48
2023-10-08T13:37:45.943Z,11.43
2023-10-08T13:42:54.432Z,11.39
2023-10-08T13:48:03.672Z,11.37
2023-10-08T13:53:14.988Z,11.37
2023-10-08T13:58:23.980Z,11.38
2023-10-08T14:03:33.006Z,11.38
2023-10-08T14:08:40.965Z,11.38
2023-10-08T14:13:50.236Z,11.38
2023-10-08T14:19:01.255Z,11.39
2023-10-08T14:24:17.228Z,11.37
2023-10-08T14:29:28.800Z,11.36
2023-10-08T14:34:50.588Z,11.37
2023-10-08T14:40:16.486Z,11.35
2023-10-08T14:45:27.733Z,11.32
2023-10-08T14:50:35.429Z,11.30
2023-10-08T14:55:43.349Z,11.28
2023-10-08T15:00:54.017Z,11.26
2023-10-08T15:06:04.725Z,11.22
2023-10-08T15:11:12.476Z,11.18
2023-10-08T15:16:22.383Z,11.14
2023-10-08T15:21:31.757Z,11.10
2023-10-08T15:26:39.477Z,11.05
2023-10-08T15:31:47.671Z,11.00
2023-10-08T15:36:55.705Z,10.93
2023-10-08T15:42:03.329Z,10.85
2023-10-08T15:47:11.100Z,10.78
2023-10-08T15:52:18.948Z,10.69
2023-10-08T15:57:26.746Z,10.59
2023-10-08T16:02:36.003Z,10.50
2023-10-08T16:07:44.436Z,10.41
2023-10-08T16:12:52.458Z,10.31
2023-10-08T16:18:00.554Z,10.22
2023-10-08T16:23:08.708Z,10.13
2023-10-08T16:28:20.536Z,10.05
2023-10-08T16:33:31.680Z,9.96
2023-10-08T16:38:40.402Z,9.88
2023-10-08T16:43:48.494Z,9.81
2023-10-08T16:48:57.088Z,9.74
2023-10-08T16:54:05.877Z,9.66
2023-10-08T16:59:16.168Z,9.60
2023-10-08T17:04:24.557Z,9.52
2023-10-08T17:09:31.899Z,9.45
2023-10-08T17:14:41.405Z,9.38
2023-10-08T17:19:50.951Z,9.30
2023-10-08T17:24:59.589Z,9.23
2023-10-08T17:30:09.897Z,9.16
2023-10-08T17:35:19.989Z,9.09
2023-10-08T17:40:28.399Z,9.03
2023-10-08T17:45:37.455Z,8.96
2023-10-08T17:50:45.388Z,8.90
2023-10-08T17:55:55.777Z,8.84
2023-10-08T18:01:08.351Z,8.77
2023-10-08T18:06:18.470Z,8.70
2023-10-08T18:11:28.058Z,8.62
2023-10-08T18:16:35.814Z,8.56
2023-10-08T18:21:45.590Z,8.48
2023-10-08T18:26:53.287Z,8.41
2023-10-08T18:32:03.283Z,8.34
2023-10-08T18:37:11.455Z,8.26
2023-10-08T18:42:20.571Z,8.19
2023-10-08T18:47:29.635Z,8.12
2023-10-08T18:52:37.877Z,8.04
2023-10-08T18:57:47.284Z,7.96
2023-10-08T19:02:56.954Z,7.87
2023-10-08T19:08:05.752Z,7.80
2023-10-08T19:13:14.035Z,7.72
2023-10-08T19:18:24.059Z,7.64
2023-10-08T19:23:32.256Z,7.56
2023-10-08T19:28:40.388Z,7.50
2023-10-08T19:33:48.574Z,7.42
2023-10-08T19:38:56.943Z,7.36
2023-10-08T19:44:06.402Z,7.30
2023-10-08T19:49:15.793Z,7.25
2023-10-08T19:54:23.740Z,7.19
2023-10-08T19:59:32.432Z,7.14
2023-10-08T20:04:40.621Z,7.09
2023-10-08T20:09:49.636Z,7.04
2023-10-08T20:14:59.206Z,6.99
2023-10-08T20:20:13.979Z,6.95
2023-10-08T20:25:26.602Z,6.91
2023-10-08T20:30:35.876Z,6.86
2023-10-08T20:35:44.755Z,6.82
2023-10-08T20:40:52.811Z,6.79
2023-10-08T20:46:02.148Z,6.77
2023-10-08T20:51:12.405Z,6.72
2023-10-08T20:56:19.921Z,6.68
2023-10-08T21:01:29.506Z,6.63
2023-10-08T21:06:37.897Z,6.59
2023-10-08T21:11:48.027Z,6.53
2023-10-08T21:16:56.608Z,6.47
2023-10-08T21:22:04.988Z,6.40
2023-10-08T21:27:12.843Z,6.35
2023-10-08T21:32:20.809Z,6.28
2023-10-08T21:37:29.210Z,6.19
2023-10-08T21:42:37.088Z,6.55
2023-10-08T21:47:46.196Z,7.72
2023-10-08T21:52:55.022Z,7.10
2023-10-08T21:58:04.646Z,6.81
2023-10-08T22:03:13.164Z,6.62
2023-10-08T22:08:24.730Z,6.47
2023-10-08T22:13:33.301Z,6.35
2023-10-08T22:18:46.413Z,6.23
2023-10-08T22:23:54.631Z,6.13
2023-10-08T22:29:02.620Z,6.04
2023-10-08T22:34:17.587Z,5.96
2023-10-08T22:39:25.201Z,5.89
2023-10-08T22:44:33.442Z,5.84
2023-10-08T22:49:42.254Z,5.81
2023-10-08T22:54:50.490Z,5.77
2023-10-08T22:59:57.898Z,5.75
2023-10-08T23:05:08.136Z,5.73
2023-10-08T23:10:16.430Z,5.70
2023-10-08T23:15:24.698Z,5.61
2023-10-08T23:20:32.650Z,5.75
2023-10-08T23:25:41.688Z,5.97
2023-10-08T23:30:49.514Z,6.08
2023-10-08T23:35:56.980Z,6.18
2023-10-08T23:41:14.436Z,6.24
2023-10-08T23:46:24.112Z,6.08
2023-10-08T23:51:34.158Z,5.86
2023-10-08T23:56:46.737Z,5.70
